Time;durP1;ratioP1;P1;durP2;ratioP2;P2;SDS_P1;SDS_P2;PMS_P1;PMS_P2;Temp;Humidity;BMP_temperature;BMP_pressure;BME280_temperature;BME280_humidity;BME280_pressure;Samples;Min_cycle;Max_cycle;Signal;HPM_P1;HPM_P2
2023/03/25 00:01:15;;;;;;;;;1.00;0.67;;;;;13.38;100.00;100522.84;5082801;28;45362;-75
2023/03/25 00:03:41;;;;;;;;;1.00;1.00;;;;;13.46;100.00;100545.91;5082541;27;45381;-75
2023/03/25 00:06:08;;;;;;;;;1.00;1.00;;;;;13.39;100.00;100526.38;5082412;27;45382;-76
2023/03/25 00:08:34;;;;;;;;;1.00;1.00;;;;;13.45;100.00;100533.59;5082655;27;45524;-75
2023/03/25 00:11:02;;;;;;;;;3.00;1.00;;;;;13.36;100.00;100530.25;5082351;28;46127;-75
2023/03/25 00:13:30;;;;;;;;;1.00;1.00;;;;;13.39;100.00;100539.72;5081236;28;46088;-75
2023/03/25 00:15:57;;;;;;;;;1.67;1.67;;;;;13.41;100.00;100537.66;5082486;27;45468;-76
2023/03/25 00:18:24;;;;;;;;;1.00;1.00;;;;;13.31;100.00;100542.53;5082429;27;45413;-76
2023/03/25 00:20:50;;;;;;;;;2.00;2.00;;;;;13.33;100.00;100546.66;5080591;28;47322;-75
2023/03/25 00:23:18;;;;;;;;;1.67;1.00;;;;;13.29;100.00;100549.94;5082611;27;45241;-75
2023/03/25 00:25:43;;;;;;;;;2.33;1.00;;;;;13.23;100.00;100543.53;5080796;28;45794;-75
2023/03/25 00:28:14;;;;;;;;;5.67;2.67;;;;;13.13;100.00;100543.88;5080807;28;46312;-75
2023/03/25 00:30:41;;;;;;;;;3.00;3.00;;;;;13.05;100.00;100542.19;5080538;28;48283;-76
2023/03/25 00:33:09;;;;;;;;;1.00;1.00;;;;;13.04;100.00;100542.38;5081881;27;45369;-75
2023/03/25 00:35:36;;;;;;;;;3.67;2.33;;;;;13.06;100.00;100538.50;5080218;28;45308;-75
2023/03/25 00:38:01;;;;;;;;;2.00;1.33;;;;;12.98;100.00;100547.47;5060522;28;46479;-76
2023/03/25 00:40:29;;;;;;;;;2.00;1.00;;;;;12.97;100.00;100553.84;5077665;28;45370;-75
2023/03/25 00:42:55;;;;;;;;;1.00;1.00;;;;;12.98;100.00;100538.66;5080729;28;45605;-75
2023/03/25 00:45:21;;;;;;;;;1.00;1.00;;;;;13.02;100.00;100547.91;5080842;28;45362;-75
2023/03/25 00:47:47;;;;;;;;;2.00;2.00;;;;;12.93;100.00;100541.91;5081814;28;45594;-75
2023/03/25 00:50:12;;;;;;;;;2.00;2.00;;;;;12.97;100.00;100559.19;5081577;27;46502;-75
2023/03/25 00:52:38;;;;;;;;;2.00;2.00;;;;;12.93;100.00;100546.41;5080831;28;45312;-75
2023/03/25 00:55:04;;;;;;;;;1.67;1.67;;;;;13.06;100.00;100541.19;5080690;28;45450;-76
2023/03/25 00:57:30;;;;;;;;;2.33;1.00;;;;;12.92;100.00;100542.91;5080720;28;46133;-75
2023/03/25 00:59:57;;;;;;;;;2.00;1.00;;;;;12.94;100.00;100524.06;5081704;27;45389;-75
2023/03/25 01:02:22;;;;;;;;;3.00;1.33;;;;;12.93;100.00;100538.41;5081824;28;45311;-75
2023/03/25 01:04:48;;;;;;;;;3.00;2.00;;;;;12.82;100.00;100531.78;5080458;28;45388;-75
2023/03/25 01:07:19;;;;;;;;;2.00;1.00;;;;;12.81;100.00;100522.13;5080725;27;45332;-75
2023/03/25 01:09:45;;;;;;;;;2.00;2.00;;;;;12.74;100.00;100525.56;5081717;27;45567;-75
2023/03/25 01:12:11;;;;;;;;;2.00;2.00;;;;;12.77;100.00;100520.84;5081596;28;45298;-75
2023/03/25 01:14:36;;;;;;;;;2.67;2.67;;;;;12.74;100.00;100520.25;5081431;27;45334;-75
2023/03/25 01:17:02;;;;;;;;;1.67;1.67;;;;;12.76;100.00;100538.72;5081612;28;45546;-75
2023/03/25 01:19:28;;;;;;;;;2.00;2.00;;;;;12.78;100.00;100523.31;5081083;27;45489;-75
2023/03/25 01:21:53;;;;;;;;;1.33;1.33;;;;;12.79;100.00;100534.81;5080239;28;45264;-75
2023/03/25 01:24:19;;;;;;;;;2.67;1.33;;;;;12.72;100.00;100542.78;5081280;27;45849;-75
2023/03/25 01:26:45;;;;;;;;;1.00;1.00;;;;;12.74;100.00;100549.56;5081238;27;45429;-75
2023/03/25 01:29:12;;;;;;;;;1.33;1.00;;;;;12.77;100.00;100547.50;5079732;28;47286;-76
2023/03/25 01:31:37;;;;;;;;;2.00;2.00;;;;;12.78;100.00;100550.00;5081290;28;45338;-75
2023/03/25 01:34:02;;;;;;;;;1.67;1.00;;;;;12.91;100.00;100543.13;5080761;27;45165;-75
2023/03/25 01:36:30;;;;;;;;;1.00;1.00;;;;;12.66;100.00;100528.38;5079575;28;46941;-75
2023/03/25 01:38:58;;;;;;;;;2.00;0.00;;;;;12.94;100.00;100548.06;5079709;28;47277;-76
2023/03/25 01:41:24;;;;;;;;;1.33;0.33;;;;;12.81;100.00;100538.94;5080959;27;45398;-75
2023/03/25 01:44:18;;;;;;;;;2.00;2.00;;;;;12.89;100.00;100548.66;5080795;27;45177;-74
2023/03/25 01:46:45;;;;;;;;;4.00;2.33;;;;;12.93;100.00;100544.56;5026527;27;47329;-75
2023/03/25 01:49:17;;;;;;;;;3.00;2.00;;;;;12.98;100.00;100547.47;5080893;28;45310;-75
2023/03/25 01:51:46;;;;;;;;;2.33;2.33;;;;;12.85;100.00;100523.38;5079028;28;45343;-75
2023/03/25 01:54:16;;;;;;;;;3.33;2.00;;;;;12.87;100.00;100526.69;5081091;27;45432;-75
2023/03/25 01:56:45;;;;;;;;;4.33;3.00;;;;;12.77;100.00;100526.19;5080649;28;45335;-75
2023/03/25 01:59:12;;;;;;;;;1.00;1.00;;;;;12.81;100.00;100506.94;5080663;27;45255;-76
2023/03/25 02:01:37;;;;;;;;;3.00;2.33;;;;;12.86;100.00;100514.34;5078988;28;45411;-76
2023/03/25 02:04:08;;;;;;;;;2.00;2.00;;;;;12.93;100.00;100501.88;5079426;28;45533;-75
2023/03/25 02:06:47;;;;;;;;;2.00;1.00;;;;;13.00;100.00;100505.41;5080686;27;45994;-76
2023/03/25 02:09:16;;;;;;;;;2.00;2.00;;;;;12.89;100.00;100503.31;5079409;28;48644;-75
2023/03/25 02:11:42;;;;;;;;;2.33;2.33;;;;;12.75;100.00;100494.38;5080281;27;45683;-75
2023/03/25 02:14:11;;;;;;;;;1.00;1.00;;;;;12.72;100.00;100500.94;5080684;27;45768;-75
2023/03/25 02:16:42;;;;;;;;;2.00;2.00;;;;;12.75;100.00;100502.38;5080476;28;45204;-74
2023/03/25 02:19:31;;;;;;;;;2.67;1.00;;;;;12.74;100.00;100490.06;5079763;28;46369;-75
2023/03/25 02:22:28;;;;;;;;;5.00;4.00;;;;;12.73;100.00;100502.59;5080296;27;45330;-75
2023/03/25 02:25:34;;;;;;;;;3.00;2.00;;;;;12.74;100.00;100504.25;5080829;27;45412;-75
2023/03/25 02:28:02;;;;;;;;;3.00;2.00;;;;;12.69;100.00;100503.97;5079144;28;46370;-75
2023/03/25 02:30:51;;;;;;;;;0.67;0.67;;;;;12.68;100.00;100501.50;5078551;28;48165;-75
2023/03/25 02:33:52;;;;;;;;;3.00;3.00;;;;;12.63;100.00;100491.44;5079870;28;45476;-75
2023/03/25 02:37:04;;;;;;;;;3.33;2.00;;;;;12.71;100.00;100495.78;5075558;28;45312;-75
2023/03/25 02:39:40;;;;;;;;;2.33;2.00;;;;;12.66;100.00;100480.38;5025573;28;45394;-75
2023/03/25 02:42:17;;;;;;;;;3.00;2.00;;;;;12.70;100.00;100489.66;5037446;28;45426;-75
2023/03/25 02:45:00;;;;;;;;;3.00;3.00;;;;;12.69;100.00;100487.97;5063399;27;45380;-75
2023/03/25 02:47:32;;;;;;;;;2.33;2.33;;;;;12.63;100.00;100483.44;5080371;28;45308;-75
2023/03/25 02:50:12;;;;;;;;;3.00;2.33;;;;;12.68;100.00;100496.19;5078181;28;47536;-75
2023/03/25 02:52:45;;;;;;;;;1.00;1.00;;;;;12.66;100.00;100493.69;5078634;28;48195;-75
2023/03/25 02:55:14;;;;;;;;;4.33;3.00;;;;;12.64;100.00;100490.44;5075000;28;46001;-75
2023/03/25 02:57:42;;;;;;;;;4.00;2.67;;;;;12.66;100.00;100485.69;5070932;28;45342;-75
2023/03/25 03:00:14;;;;;;;;;3.00;2.33;;;;;12.63;100.00;100496.75;5078543;27;46548;-76
2023/03/25 03:02:45;;;;;;;;;2.33;1.00;;;;;12.61;100.00;100491.63;5078612;28;47675;-75
2023/03/25 03:05:30;;;;;;;;;3.00;3.00;;;;;12.67;100.00;100494.53;5079501;27;45829;-75
2023/03/25 03:08:29;;;;;;;;;4.00;2.00;;;;;12.68;100.00;100493.50;5079813;27;45326;-75
2023/03/25 03:11:23;;;;;;;;;2.00;2.00;;;;;12.63;100.00;100484.25;5079660;27;45335;-75
2023/03/25 03:14:10;;;;;;;;;2.33;2.33;;;;;12.62;100.00;100492.44;5079588;27;46144;-76
2023/03/25 03:16:45;;;;;;;;;4.00;4.00;;;;;12.56;100.00;100479.88;5079862;27;45183;-75
2023/03/25 03:19:13;;;;;;;;;3.33;3.33;;;;;12.70;100.00;100497.66;5079509;27;45267;-75
2023/03/25 03:21:59;;;;;;;;;2.00;2.00;;;;;12.73;100.00;100493.75;5078044;28;45941;-75
2023/03/25 03:24:31;;;;;;;;;3.00;2.00;;;;;12.80;100.00;100504.47;5079247;27;45495;-75
2023/03/25 03:27:13;;;;;;;;;3.33;2.00;;;;;12.84;100.00;100503.88;5077926;28;45328;-75
2023/03/25 03:29:46;;;;;;;;;2.00;2.00;;;;;12.84;100.00;100497.75;5072244;27;45306;-75
2023/03/25 03:32:23;;;;;;;;;3.67;2.67;;;;;12.86;100.00;100491.19;5071451;27;47036;-75
2023/03/25 03:34:58;;;;;;;;;2.33;1.00;;;;;12.94;100.00;100498.22;5069722;27;46443;-75
2023/03/25 03:37:33;;;;;;;;;4.00;1.67;;;;;12.96;100.00;100498.81;5072749;28;45244;-75
2023/03/25 03:40:03;;;;;;;;;4.67;3.00;;;;;12.97;100.00;100499.66;5071667;28;45307;-75
2023/03/25 03:42:36;;;;;;;;;2.00;2.00;;;;;13.15;100.00;100509.00;5079001;28;45780;-76
2023/03/25 03:45:08;;;;;;;;;4.33;3.00;;;;;13.00;100.00;100505.41;5077907;27;48676;-75
2023/03/25 03:47:46;;;;;;;;;1.67;1.67;;;;;13.03;100.00;100509.56;5079562;27;45437;-76
2023/03/25 03:50:17;;;;;;;;;3.67;3.67;;;;;13.06;100.00;100508.31;5078939;27;45343;-75
2023/03/25 03:53:03;;;;;;;;;4.00;3.00;;;;;13.00;100.00;100501.94;5079363;27;45239;-75
2023/03/25 03:55:51;;;;;;;;;1.00;1.00;;;;;13.02;100.00;100499.88;5079057;27;45261;-76
2023/03/25 03:58:32;;;;;;;;;1.67;1.33;;;;;13.11;100.00;100495.22;5078570;28;45291;-75
2023/03/25 04:01:26;;;;;;;;;1.67;1.67;;;;;13.11;100.00;100503.25;5078819;27;45346;-75
2023/03/25 04:03:56;;;;;;;;;4.00;2.00;;;;;13.06;100.00;100498.50;5078970;27;45345;-75
2023/03/25 04:06:35;;;;;;;;;2.00;2.00;;;;;12.99;100.00;100502.97;5078493;27;45224;-75
2023/03/25 04:09:17;;;;;;;;;2.00;2.00;;;;;13.10;100.00;100512.25;5077747;28;45406;-74
2023/03/25 04:11:55;;;;;;;;;1.00;0.67;;;;;13.05;100.00;100514.69;5078876;27;45618;-75
2023/03/25 04:14:21;;;;;;;;;1.67;1.67;;;;;13.08;100.00;100514.31;5078742;27;45392;-75
2023/03/25 04:16:46;;;;;;;;;2.00;0.33;;;;;13.08;100.00;100516.97;5077624;28;47113;-75
2023/03/25 04:19:12;;;;;;;;;2.33;1.33;;;;;13.08;100.00;100514.31;5077126;28;50789;-75
2023/03/25 04:21:38;;;;;;;;;3.00;2.00;;;;;13.04;100.00;100502.34;5079045;27;45468;-75
2023/03/25 04:24:07;;;;;;;;;2.00;1.00;;;;;13.02;100.00;100512.41;5077521;28;46105;-75
2023/03/25 04:26:36;;;;;;;;;1.00;1.00;;;;;13.01;100.00;100511.59;5078505;27;45350;-75
2023/03/25 04:29:02;;;;;;;;;1.33;1.33;;;;;12.97;100.00;100507.66;5075636;28;45466;-75
2023/03/25 04:31:32;;;;;;;;;2.00;1.00;;;;;13.02;100.00;100515.88;5078824;27;45310;-75
2023/03/25 04:33:58;;;;;;;;;3.00;1.00;;;;;13.04;100.00;100518.34;5076867;28;45445;-75
2023/03/25 04:36:27;;;;;;;;;1.33;0.00;;;;;13.08;100.00;100520.44;5078496;27;45391;-75
2023/03/25 04:38:54;;;;;;;;;3.00;2.00;;;;;13.05;100.00;100517.34;5078399;27;45360;-75
2023/03/25 04:41:20;;;;;;;;;2.00;1.00;;;;;12.96;100.00;100498.03;5078811;27;45250;-75
2023/03/25 04:43:45;;;;;;;;;0.00;0.00;;;;;12.99;100.00;100510.97;5081779;27;45303;-75
2023/03/25 04:46:14;;;;;;;;;1.00;0.33;;;;;13.08;100.00;100522.31;5080770;27;48285;-77
2023/03/25 04:48:43;;;;;;;;;0.00;0.00;;;;;13.06;100.00;100525.16;5081888;27;45445;-75
2023/03/25 04:51:11;;;;;;;;;3.33;1.67;;;;;13.08;100.00;100524.97;5082216;27;45354;-75
2023/03/25 04:53:37;;;;;;;;;1.00;1.00;;;;;13.04;100.00;100519.19;5081526;27;45291;-75
2023/03/25 04:56:03;;;;;;;;;1.00;1.00;;;;;13.13;100.00;100526.03;5080641;28;47262;-75
2023/03/25 04:58:29;;;;;;;;;1.00;1.00;;;;;13.12;100.00;100540.41;5080576;28;45691;-75
2023/03/25 05:00:54;;;;;;;;;2.00;0.00;;;;;13.21;100.00;100534.88;5082144;27;45616;-75
2023/03/25 05:03:23;;;;;;;;;0.33;0.33;;;;;13.16;100.00;100524.81;5081541;28;45304;-75
2023/03/25 05:05:52;;;;;;;;;2.67;1.00;;;;;13.21;100.00;100546.41;5081482;28;46168;-75
2023/03/25 05:08:20;;;;;;;;;2.00;2.00;;;;;13.07;100.00;100526.81;5080243;27;46137;-75
2023/03/25 05:10:46;;;;;;;;;3.00;2.00;;;;;13.13;100.00;100534.03;5080682;28;45441;-75
2023/03/25 05:13:11;;;;;;;;;0.00;0.00;;;;;13.13;100.00;100536.69;5079884;27;46186;-75
2023/03/25 05:15:39;;;;;;;;;1.67;0.67;;;;;13.17;100.00;100534.44;5069020;28;46136;-75
2023/03/25 05:18:13;;;;;;;;;2.00;2.00;;;;;13.29;100.00;100541.91;5081208;28;45319;-75
2023/03/25 05:20:40;;;;;;;;;2.00;2.00;;;;;13.33;100.00;100553.84;5081129;27;45777;-75
2023/03/25 05:23:11;;;;;;;;;1.00;1.00;;;;;13.32;100.00;100545.00;5081558;27;45223;-75
2023/03/25 05:25:38;;;;;;;;;3.00;1.67;;;;;13.33;100.00;100543.16;5080758;27;45597;-75
2023/03/25 05:28:08;;;;;;;;;2.00;1.00;;;;;13.19;100.00;100539.59;5080237;28;45354;-75
2023/03/25 05:30:38;;;;;;;;;2.67;2.00;;;;;13.26;100.00;100543.94;5067758;27;45240;-75
2023/03/25 05:33:04;;;;;;;;;3.00;2.00;;;;;13.21;100.00;100549.06;5081040;27;45484;-75
2023/03/25 05:35:29;;;;;;;;;2.00;2.00;;;;;13.12;100.00;100550.25;5079123;27;47621;-75
2023/03/25 05:37:55;;;;;;;;;0.67;0.67;;;;;13.16;100.00;100551.50;5081091;27;52620;-75
2023/03/25 05:40:21;;;;;;;;;2.33;1.00;;;;;13.18;100.00;100559.28;5077918;28;45373;-75
2023/03/25 05:42:47;;;;;;;;;1.00;1.00;;;;;13.18;100.00;100560.13;5069577;28;45354;-75
2023/03/25 05:45:15;;;;;;;;;1.33;1.00;;;;;13.20;100.00;100563.41;5080853;27;46564;-75
2023/03/25 05:47:41;;;;;;;;;1.00;1.00;;;;;13.19;100.00;100577.78;5081009;27;45384;-75
2023/03/25 05:50:07;;;;;;;;;3.00;0.00;;;;;13.20;100.00;100581.28;5081057;27;45353;-75
2023/03/25 05:52:33;;;;;;;;;1.33;1.33;;;;;13.29;100.00;100576.63;5080818;28;45865;-75
2023/03/25 05:54:58;;;;;;;;;2.00;2.00;;;;;13.33;100.00;100588.53;5079416;28;55318;-75
2023/03/25 05:57:23;;;;;;;;;1.00;0.00;;;;;13.37;100.00;100589.78;5079781;28;45339;-75
2023/03/25 05:59:49;;;;;;;;;2.00;1.33;;;;;13.39;100.00;100595.75;5080717;27;52391;-75
2023/03/25 06:02:15;;;;;;;;;2.00;1.00;;;;;13.50;100.00;100597.09;5080355;28;59524;-75
2023/03/25 06:04:41;;;;;;;;;3.00;1.33;;;;;13.40;100.00;100600.06;5080374;27;45414;-75
2023/03/25 06:07:12;;;;;;;;;1.00;1.00;;;;;13.52;100.00;100612.91;5080568;27;45394;-75
2023/03/25 06:09:44;;;;;;;;;3.00;1.33;;;;;13.48;100.00;100607.94;5081001;27;45542;-75
2023/03/25 06:12:10;;;;;;;;;1.67;1.00;;;;;13.57;100.00;100613.97;5080838;28;45425;-75
2023/03/25 06:14:36;;;;;;;;;1.00;1.00;;;;;13.51;100.00;100606.75;5080385;27;45302;-74
2023/03/25 06:17:01;;;;;;;;;3.67;2.67;;;;;13.52;100.00;100607.59;5080789;27;45380;-74
2023/03/25 06:19:26;;;;;;;;;2.00;2.00;;;;;13.51;100.00;100614.75;5081281;27;45441;-75
2023/03/25 06:21:52;;;;;;;;;1.00;1.00;;;;;13.60;100.00;100634.94;5079723;27;45465;-75
2023/03/25 06:24:17;;;;;;;;;1.00;0.00;;;;;13.54;100.00;100626.88;5079565;28;45399;-75
2023/03/25 06:26:43;;;;;;;;;0.00;0.00;;;;;13.59;100.00;100632.47;5080464;27;45393;-75
2023/03/25 06:29:08;;;;;;;;;1.00;1.00;;;;;13.56;100.00;100639.00;5074691;28;45459;-75
2023/03/25 06:31:33;;;;;;;;;1.00;1.00;;;;;13.45;100.00;100644.88;5080507;27;45363;-77
2023/03/25 06:34:00;;;;;;;;;1.00;0.67;;;;;13.57;100.00;100646.00;5078785;28;46931;-76
2023/03/25 06:36:26;;;;;;;;;2.67;1.00;;;;;13.51;100.00;100649.47;5080433;27;45234;-76
2023/03/25 06:38:52;;;;;;;;;3.00;1.00;;;;;13.58;100.00;100649.50;5080032;27;45378;-76
2023/03/25 06:41:19;;;;;;;;;1.00;0.00;;;;;13.51;100.00;100641.44;5080431;27;45364;-74
2023/03/25 06:43:45;;;;;;;;;2.33;1.00;;;;;13.46;100.00;100647.34;5080076;27;45619;-75
2023/03/25 06:46:11;;;;;;;;;4.00;1.00;;;;;13.58;100.00;100660.16;5080250;27;45330;-76
2023/03/25 06:48:37;;;;;;;;;1.00;1.00;;;;;13.59;100.00;100673.31;5078691;28;45252;-75
2023/03/25 06:51:03;;;;;;;;;3.33;1.67;;;;;13.60;100.00;100677.66;5078815;27;45324;-75
2023/03/25 06:53:28;;;;;;;;;0.00;0.00;;;;;13.63;100.00;100657.75;5080108;27;45584;-76
2023/03/25 06:55:57;;;;;;;;;1.67;1.33;;;;;13.63;100.00;100663.94;5079005;28;45379;-76
2023/03/25 06:58:22;;;;;;;;;1.00;1.00;;;;;13.75;100.00;100671.38;5095061;27;45292;-77
2023/03/25 07:00:54;;;;;;;;;3.00;2.00;;;;;13.71;100.00;100664.78;5077612;28;47099;-78
2023/03/25 07:03:20;;;;;;;;;2.00;2.00;;;;;13.81;100.00;100691.13;5080621;28;45564;-76
2023/03/25 07:05:47;;;;;;;;;1.33;1.00;;;;;13.83;100.00;100679.22;5077785;28;45244;-77
2023/03/25 07:08:15;;;;;;;;;1.67;1.00;;;;;13.83;100.00;100678.41;5075141;27;45381;-76
2023/03/25 07:10:40;;;;;;;;;3.33;2.00;;;;;13.84;100.00;100680.03;5061259;28;45918;-75
2023/03/25 07:13:07;;;;;;;;;1.00;1.00;;;;;13.91;100.00;100688.91;5077217;28;47795;-75
2023/03/25 07:15:32;;;;;;;;;0.00;0.00;;;;;13.91;100.00;100691.59;5078181;28;45453;-76
2023/03/25 07:17:57;;;;;;;;;3.33;2.00;;;;;13.95;100.00;100686.69;5069849;27;45413;-76
2023/03/25 07:20:23;;;;;;;;;4.00;1.00;;;;;13.95;100.00;100692.03;5078536;28;57243;-76
2023/03/25 07:22:48;;;;;;;;;3.00;2.00;;;;;13.86;100.00;100673.47;5079452;28;54602;-75
2023/03/25 07:25:13;;;;;;;;;3.00;1.00;;;;;13.95;100.00;100684.81;5079571;27;45322;-75
2023/03/25 07:27:39;;;;;;;;;2.00;2.00;;;;;14.06;100.00;100687.94;5078540;28;45276;-76
2023/03/25 07:30:05;;;;;;;;;2.00;2.00;;;;;14.18;100.00;100694.38;5073270;27;45594;-76
2023/03/25 07:32:31;;;;;;;;;2.00;2.00;;;;;14.23;100.00;100688.44;5075208;28;47079;-75
2023/03/25 07:34:56;;;;;;;;;2.33;2.33;;;;;14.36;100.00;100693.00;5079210;28;45318;-75
2023/03/25 07:37:21;;;;;;;;;3.00;1.00;;;;;14.46;100.00;100690.78;5079174;28;45237;-75
2023/03/25 07:39:46;;;;;;;;;1.00;1.00;;;;;14.44;100.00;100679.47;5079563;27;45276;-75
2023/03/25 07:42:12;;;;;;;;;2.00;2.00;;;;;14.36;100.00;100683.16;5078769;27;46120;-75
2023/03/25 07:44:37;;;;;;;;;3.00;2.33;;;;;14.58;100.00;100703.56;5079447;27;45389;-75
2023/03/25 07:47:02;;;;;;;;;2.00;2.00;;;;;14.61;100.00;100711.19;5076058;28;45492;-75
2023/03/25 07:49:28;;;;;;;;;6.00;2.00;;;;;14.62;100.00;100702.13;5078569;27;45327;-75
2023/03/25 07:51:53;;;;;;;;;3.00;3.00;;;;;14.66;100.00;100710.59;5077799;27;46354;-75
2023/03/25 07:54:21;;;;;;;;;5.67;3.00;;;;;14.67;100.00;100712.22;5063456;28;54966;-75
2023/03/25 07:56:46;;;;;;;;;1.67;1.67;;;;;14.75;100.00;100718.22;5079526;28;45361;-75
2023/03/25 07:59:11;;;;;;;;;2.00;2.00;;;;;14.92;98.07;100722.38;5078661;27;45288;-75
2023/03/25 08:01:37;;;;;;;;;2.33;1.67;;;;;14.76;98.70;100721.72;5079300;27;45355;-75
2023/03/25 08:04:02;;;;;;;;;1.67;1.67;;;;;14.81;96.66;100721.16;5078731;28;46291;-75
2023/03/25 08:06:28;;;;;;;;;1.00;1.00;;;;;14.82;96.81;100730.81;5077900;28;45327;-76
2023/03/25 08:08:54;;;;;;;;;1.00;1.00;;;;;14.81;96.50;100726.50;5078834;27;45349;-75
2023/03/25 08:11:20;;;;;;;;;2.33;2.33;;;;;14.88;96.17;100730.00;5072222;27;46668;-75
2023/03/25 08:13:46;;;;;;;;;2.00;2.00;;;;;14.96;95.25;100739.66;5057710;28;45481;-76
2023/03/25 08:16:13;;;;;;;;;1.00;1.00;;;;;14.95;94.23;100728.16;5065084;28;45341;-75
2023/03/25 08:18:39;;;;;;;;;1.33;1.00;;;;;15.00;95.66;100732.91;5068861;28;46324;-75
2023/03/25 08:21:05;;;;;;;;;2.67;2.67;;;;;15.01;95.42;100743.41;5069047;28;45350;-75
2023/03/25 08:23:30;;;;;;;;;1.33;1.33;;;;;15.08;95.09;100750.63;5080298;28;45399;-75
2023/03/25 08:25:56;;;;;;;;;2.00;2.00;;;;;15.21;95.90;100755.16;5082575;27;45386;-75
2023/03/25 08:28:21;;;;;;;;;1.00;1.00;;;;;15.25;94.01;100754.56;5065713;27;45370;-75
2023/03/25 08:30:48;;;;;;;;;4.00;1.33;;;;;15.22;93.92;100754.97;5081058;28;48487;-75
2023/03/25 08:33:15;;;;;;;;;3.00;1.67;;;;;15.36;91.85;100760.31;5081790;28;45375;-75
2023/03/25 08:35:41;;;;;;;;;3.33;2.00;;;;;15.37;89.82;100764.63;5081790;27;45378;-75
2023/03/25 08:38:07;;;;;;;;;3.00;1.67;;;;;15.47;90.66;100780.31;5080998;28;46569;-75
2023/03/25 08:40:35;;;;;;;;;2.00;1.67;;;;;15.47;89.15;100756.22;5078218;28;46270;-75
2023/03/25 08:43:02;;;;;;;;;2.00;0.33;;;;;15.56;87.80;100752.25;5062188;28;45398;-75
2023/03/25 08:45:28;;;;;;;;;2.67;1.00;;;;;15.56;87.55;100754.13;5065289;28;45423;-75
2023/03/25 08:47:53;;;;;;;;;2.00;1.00;;;;;15.67;87.32;100756.19;5080805;28;46190;-75
2023/03/25 08:50:19;;;;;;;;;1.33;1.33;;;;;15.82;86.96;100755.13;5075284;28;48242;-75
2023/03/25 08:52:45;;;;;;;;;3.33;2.33;;;;;15.91;86.93;100761.91;5072478;28;45364;-75
2023/03/25 08:55:10;;;;;;;;;2.00;2.00;;;;;15.92;86.59;100758.19;5063128;27;45866;-75
2023/03/25 08:57:36;;;;;;;;;0.00;0.00;;;;;15.97;87.51;100763.78;5062202;28;45283;-76
2023/03/25 09:00:12;;;;;;;;;0.67;0.67;;;;;16.08;85.21;100766.84;5078282;28;45627;-76
2023/03/25 09:02:37;;;;;;;;;3.00;1.67;;;;;16.07;85.30;100770.56;5065038;28;45478;-76
2023/03/25 09:05:03;;;;;;;;;1.67;1.00;;;;;16.00;84.16;100768.72;5070351;28;45268;-75
2023/03/25 09:07:29;;;;;;;;;1.67;1.00;;;;;16.02;82.33;100777.38;5080053;28;46721;-75
2023/03/25 09:09:54;;;;;;;;;3.33;2.00;;;;;15.99;83.23;100775.13;5079849;28;47520;-75
2023/03/25 09:12:19;;;;;;;;;1.33;1.33;;;;;15.99;83.73;100783.19;5081253;28;45399;-76
2023/03/25 09:14:45;;;;;;;;;2.00;0.67;;;;;16.05;83.72;100786.03;5081369;27;45469;-77
2023/03/25 09:17:10;;;;;;;;;3.00;2.67;;;;;15.96;83.28;100777.38;5065326;27;45462;-76
2023/03/25 09:19:36;;;;;;;;;1.67;1.00;;;;;15.87;82.86;100779.44;5061073;28;45299;-76
2023/03/25 09:22:02;;;;;;;;;4.67;1.00;;;;;15.80;81.96;100779.44;5076175;28;45509;-76
2023/03/25 09:24:28;;;;;;;;;3.67;1.33;;;;;15.80;83.34;100779.44;5074290;28;45256;-76
2023/03/25 09:26:53;;;;;;;;;1.67;1.67;;;;;15.84;83.56;100782.53;5081390;27;45314;-76
2023/03/25 09:29:18;;;;;;;;;3.00;2.67;;;;;15.89;82.85;100770.16;5080032;28;46053;-77
2023/03/25 09:31:44;;;;;;;;;2.00;1.33;;;;;16.09;82.25;100781.91;5080849;28;46157;-76
2023/03/25 09:34:09;;;;;;;;;2.33;0.33;;;;;16.30;83.20;100775.44;5079767;27;45390;-77
2023/03/25 09:36:36;;;;;;;;;1.33;1.33;;;;;16.49;82.08;100780.97;5079976;28;46470;-75
2023/03/25 09:39:01;;;;;;;;;1.67;0.67;;;;;16.59;79.48;100781.31;5078673;28;47168;-76
2023/03/25 09:41:53;;;;;;;;;0.00;0.00;;;;;16.84;79.87;100782.41;5077734;28;45375;-77
2023/03/25 09:44:27;;;;;;;;;6.00;1.67;;;;;16.92;79.43;100792.91;5081356;28;45311;-78
2023/03/25 09:46:56;;;;;;;;;1.00;1.00;;;;;16.90;77.50;100787.75;5079818;28;46610;-78
2023/03/25 09:49:26;;;;;;;;;2.33;1.00;;;;;16.92;74.56;100793.72;5080647;27;45403;-76
2023/03/25 09:51:54;;;;;;;;;2.00;1.00;;;;;16.88;76.11;100797.88;5081092;27;45366;-76
2023/03/25 09:54:32;;;;;;;;;2.00;1.67;;;;;16.86;75.62;100791.09;5072593;28;45399;-76
2023/03/25 09:57:03;;;;;;;;;1.00;1.00;;;;;16.81;75.08;100805.16;5070727;28;45338;-76
2023/03/25 09:59:39;;;;;;;;;4.33;1.00;;;;;16.78;75.04;100811.78;5070348;28;47492;-77
2023/03/25 10:02:34;;;;;;;;;1.33;0.67;;;;;16.69;74.15;100804.16;5080581;27;45398;-77
2023/03/25 10:05:22;;;;;;;;;1.00;0.00;;;;;16.65;73.65;100812.63;5066736;27;45418;-77
2023/03/25 10:08:00;;;;;;;;;2.33;0.00;;;;;16.57;73.19;100818.25;5079172;28;47529;-76
2023/03/25 10:10:51;;;;;;;;;0.00;0.00;;;;;16.49;72.97;100805.91;5079528;27;46346;-76
2023/03/25 10:13:39;;;;;;;;;0.00;0.00;;;;;16.39;72.96;100813.56;5076956;28;45402;-75
2023/03/25 10:16:29;;;;;;;;;2.00;0.00;;;;;16.40;75.03;100816.03;5079479;27;45515;-76
2023/03/25 10:19:17;;;;;;;;;4.67;3.00;;;;;16.38;74.67;100815.41;5080343;28;45310;-76
2023/03/25 10:22:15;;;;;;;;;2.00;2.00;;;;;16.50;76.08;100823.66;5069764;27;45481;-77
2023/03/25 10:25:14;;;;;;;;;0.33;0.33;;;;;16.46;74.81;100818.94;5077285;28;45319;-77
2023/03/25 10:27:44;;;;;;;;;1.67;1.67;;;;;16.61;76.00;100837.47;5067769;28;45374;-75
2023/03/25 10:30:25;;;;;;;;;0.33;0.33;;;;;16.62;78.28;100828.34;5073735;28;45449;-76
2023/03/25 10:32:55;;;;;;;;;2.00;1.00;;;;;16.77;80.13;100847.69;5068341;28;46317;-76
2023/03/25 10:35:26;;;;;;;;;1.00;0.00;;;;;16.83;78.74;100846.03;5075887;28;45589;-77
2023/03/25 10:37:56;;;;;;;;;3.67;1.00;;;;;16.89;75.87;100841.66;5078255;27;45488;-76
2023/03/25 10:40:24;;;;;;;;;2.00;1.00;;;;;16.86;75.64;100842.91;5069234;28;45381;-77
2023/03/25 10:43:33;;;;;;;;;0.33;0.00;;;;;16.91;76.31;100839.56;5079358;28;45364;-77
2023/03/25 10:46:07;;;;;;;;;2.00;0.50;;;;;17.09;76.51;100838.09;5036150;28;45460;-77
2023/03/25 10:48:34;;;;;;;;;0.00;0.00;;;;;17.26;76.95;100833.84;5066318;27;45367;-77
2023/03/25 10:51:12;;;;;;;;;1.67;1.67;;;;;17.38;76.34;100833.97;5079621;27;45312;-76
2023/03/25 10:53:40;;;;;;;;;1.67;1.00;;;;;17.40;75.45;100829.22;5078011;28;48332;-76
2023/03/25 10:56:13;;;;;;;;;1.33;0.00;;;;;17.53;75.17;100840.88;5079352;27;45422;-76
2023/03/25 10:58:41;;;;;;;;;1.00;0.00;;;;;17.58;74.14;100827.63;5079038;27;45495;-75
2023/03/25 11:01:18;;;;;;;;;5.33;4.00;;;;;17.64;74.91;100831.28;5066403;28;45473;-76
2023/03/25 11:03:48;;;;;;;;;1.00;0.67;;;;;17.64;73.78;100823.22;5079791;27;45279;-78
2023/03/25 11:06:23;;;;;;;;;2.67;2.00;;;;;17.58;73.71;100824.94;5079764;27;45616;-78
2023/03/25 11:09:22;;;;;;;;;2.67;2.00;;;;;17.57;73.63;100822.47;5078642;28;45603;-77
2023/03/25 11:11:48;;;;;;;;;2.67;2.00;;;;;17.39;72.04;100830.22;5079997;27;45278;-77
2023/03/25 11:14:15;;;;;;;;;0.33;0.00;;;;;17.28;71.87;100839.00;5080179;27;46378;-76
2023/03/25 11:16:53;;;;;;;;;1.00;0.00;;;;;17.13;72.29;100821.31;5079791;27;45341;-77
2023/03/25 11:19:28;;;;;;;;;1.00;1.00;;;;;17.20;71.74;100833.88;5078196;27;45620;-77
2023/03/25 11:21:57;;;;;;;;;3.00;2.00;;;;;17.21;71.97;100835.53;5075795;27;46241;-78
2023/03/25 11:24:31;;;;;;;;;2.00;2.00;;;;;17.21;72.80;100820.22;5069833;28;46990;-77
2023/03/25 11:26:56;;;;;;;;;2.00;2.00;;;;;17.29;73.42;100835.25;5079022;27;45208;-76
2023/03/25 11:29:25;;;;;;;;;1.67;1.67;;;;;17.31;72.15;100822.44;5079792;27;45361;-79
2023/03/25 11:31:57;;;;;;;;;0.67;0.67;;;;;17.38;71.53;100841.19;5069901;27;46983;-78
2023/03/25 11:34:23;;;;;;;;;0.00;0.00;;;;;17.40;70.33;100831.88;5079160;27;45350;-79